createdAt,value
2018-01-25T00:01:01.030Z,82.50
2018-01-25T00:03:27.245Z,82.80
2018-01-25T00:05:54.210Z,82.80
2018-01-25T00:08:20.477Z,82.90
2018-01-25T00:10:48.322Z,82.90
2018-01-25T00:13:18.685Z,83.40
2018-01-25T00:15:45.009Z,83.00
2018-01-25T00:18:11.166Z,83.50
2018-01-25T00:20:38.337Z,83.00
2018-01-25T00:23:04.527Z,82.90
2018-01-25T00:25:31.304Z,83.00
2018-01-25T00:27:58.091Z,83.40
2018-01-25T00:30:24.277Z,83.00
2018-01-25T00:32:51.060Z,83.30
2018-01-25T00:35:17.241Z,83.80
2018-01-25T00:37:43.432Z,83.50
2018-01-25T00:40:10.384Z,83.50
2018-01-25T00:42:37.741Z,83.50
2018-01-25T00:45:04.012Z,83.60
2018-01-25T00:47:30.691Z,83.50
2018-01-25T00:49:56.885Z,83.50
2018-01-25T00:52:23.097Z,83.70
2018-01-25T00:54:49.258Z,84.20
2018-01-25T00:57:17.286Z,84.30
2018-01-25T00:59:43.486Z,84.20
2018-01-25T01:02:09.717Z,84.20
2018-01-25T01:04:36.313Z,84.20
2018-01-25T01:07:02.476Z,84.20
2018-01-25T01:09:30.059Z,84.10
2018-01-25T01:12:01.901Z,83.50
2018-01-25T01:14:29.130Z,83.40
2018-01-25T01:16:56.074Z,83.60
2018-01-25T01:19:23.044Z,83.60
2018-01-25T01:21:49.232Z,83.00
2018-01-25T01:24:15.467Z,83.50
2018-01-25T01:26:43.453Z,83.50
2018-01-25T01:29:12.274Z,83.40
2018-01-25T01:31:38.755Z,83.40
2018-01-25T01:34:04.918Z,83.50
2018-01-25T01:36:32.466Z,83.90
2018-01-25T01:38:59.384Z,83.70
2018-01-25T01:41:25.552Z,83.00
2018-01-25T01:43:51.787Z,83.50
2018-01-25T01:46:18.079Z,82.80
2018-01-25T01:48:45.029Z,83.10
2018-01-25T01:51:12.830Z,82.30
2018-01-25T01:53:40.010Z,82.30
2018-01-25T01:56:06.210Z,81.80
2018-01-25T01:58:32.375Z,82.30
2018-01-25T02:00:58.877Z,81.60
2018-01-25T02:03:27.183Z,81.00
2018-01-25T02:05:53.417Z,81.00
2018-01-25T02:08:19.578Z,81.10
2018-01-25T02:10:48.507Z,81.20
2018-01-25T02:13:15.474Z,80.50
2018-01-25T02:15:42.537Z,81.10
2018-01-25T02:18:08.721Z,80.50
2018-01-25T02:20:36.129Z,81.20
2018-01-25T02:23:04.705Z,80.40
2018-01-25T02:25:31.935Z,80.20
2018-01-25T02:27:58.519Z,80.80
2018-01-25T02:30:27.775Z,80.90
2018-01-25T02:32:55.057Z,80.60
2018-01-25T02:35:21.250Z,80.20
2018-01-25T02:37:48.595Z,80.20
2018-01-25T02:40:14.800Z,80.20
2018-01-25T02:42:42.024Z,80.30
2018-01-25T02:45:08.213Z,80.40
2018-01-25T02:47:35.562Z,80.80
2018-01-25T02:50:01.744Z,80.30
2018-01-25T02:52:27.918Z,80.50
2018-01-25T02:54:54.121Z,80.60
2018-01-25T02:57:20.687Z,80.00
2018-01-25T02:59:46.901Z,80.60
2018-01-25T03:02:13.112Z,80.60
2018-01-25T03:04:40.698Z,80.30
2018-01-25T03:07:06.932Z,80.30
2018-01-25T03:22:33.155Z,80.30
2018-01-25T03:24:59.309Z,81.80
2018-01-25T03:27:25.522Z,81.20
2018-01-25T03:29:51.689Z,81.10
2018-01-25T03:32:18.590Z,81.80
2018-01-25T03:34:44.768Z,81.80
2018-01-25T03:37:12.198Z,81.00
2018-01-25T03:39:39.235Z,80.80
2018-01-25T03:42:05.379Z,80.80
2018-01-25T03:44:32.849Z,81.60
2018-01-25T03:46:59.830Z,81.00
2018-01-25T03:49:26.961Z,81.30
2018-01-25T03:51:53.990Z,81.80
2018-01-25T03:54:21.162Z,81.80
2018-01-25T04:06:39.105Z,81.50
2018-01-25T04:22:10.366Z,81.80
2018-01-25T04:24:36.546Z,82.40
2018-01-25T04:27:02.762Z,82.40
2018-01-25T04:29:30.614Z,82.30
2018-01-25T04:45:01.885Z,83.20
2018-01-25T04:47:29.370Z,84.10
2018-01-25T04:49:55.577Z,84.30
2018-01-25T04:52:22.246Z,83.60
2018-01-25T04:54:49.391Z,84.50
2018-01-25T04:57:15.714Z,83.70
2018-01-25T04:59:41.878Z,83.90
2018-01-25T05:02:08.728Z,84.50
2018-01-25T05:04:35.884Z,84.20
2018-01-25T05:07:02.826Z,84.20
2018-01-25T05:09:29.816Z,84.70
2018-01-25T05:11:55.985Z,84.10
2018-01-25T05:14:22.171Z,84.50
2018-01-25T05:16:54.577Z,84.50
2018-01-25T05:19:23.562Z,84.60
2018-01-25T05:21:50.509Z,84.20
2018-01-25T05:24:16.794Z,84.60
2018-01-25T05:26:44.549Z,84.00
2018-01-25T05:29:13.142Z,84.50
2018-01-25T05:31:39.758Z,83.80
2018-01-25T05:34:06.268Z,83.70
2018-01-25T05:36:32.488Z,84.30
2018-01-25T05:38:58.699Z,82.80
2018-01-25T05:41:24.908Z,83.30
2018-01-25T05:43:51.281Z,84.00
2018-01-25T05:46:17.503Z,82.80
2018-01-25T05:48:43.801Z,82.50
2018-01-25T05:51:10.180Z,82.60
2018-01-25T05:53:37.324Z,82.50
2018-01-25T05:56:04.202Z,82.20
2018-01-25T05:58:30.794Z,82.20
2018-01-25T06:00:57.874Z,82.20
2018-01-25T06:03:24.668Z,82.00
2018-01-25T06:05:51.887Z,81.90
2018-01-25T06:08:18.107Z,81.90
2018-01-25T06:10:44.281Z,81.90
2018-01-25T06:13:10.555Z,81.50
2018-01-25T06:15:36.816Z,81.60
2018-01-25T06:27:50.897Z,81.40
2018-01-25T06:30:17.171Z,81.80
2018-01-25T06:32:44.207Z,81.60
2018-01-25T06:35:11.444Z,82.30
2018-01-25T06:37:37.843Z,81.50
2018-01-25T06:40:05.380Z,81.60
2018-01-25T06:42:31.589Z,81.40
2018-01-25T06:44:57.757Z,82.10
2018-01-25T06:47:23.950Z,81.50
2018-01-25T06:49:50.176Z,81.70
2018-01-25T06:52:16.341Z,82.30
2018-01-25T06:54:42.642Z,82.30
2018-01-25T06:57:08.905Z,80.80
2018-01-25T06:59:50.257Z,81.20
2018-01-25T07:02:17.442Z,80.80
2018-01-25T07:04:43.655Z,81.60
2018-01-25T07:07:10.821Z,81.40
2018-01-25T07:09:38.943Z,81.50
2018-01-25T07:12:07.392Z,82.70
2018-01-25T07:14:33.667Z,82.10
2018-01-25T07:17:00.608Z,82.10
2018-01-25T07:19:26.791Z,82.00
2018-01-25T07:21:53.243Z,81.50
2018-01-25T07:24:20.786Z,82.10
2018-01-25T07:26:47.544Z,81.50
2018-01-25T07:29:15.210Z,82.80
2018-01-25T07:31:42.356Z,82.20
2018-01-25T07:34:11.260Z,82.80
2018-01-25T07:36:39.463Z,82.10
2018-01-25T07:39:05.652Z,81.40
2018-01-25T07:41:34.098Z,82.10
2018-01-25T07:44:00.657Z,82.00
2018-01-25T07:46:27.653Z,82.00
2018-01-25T07:48:53.990Z,82.10
2018-01-25T07:51:21.324Z,81.50
2018-01-25T07:53:48.248Z,82.10
2018-01-25T07:56:14.484Z,82.10
2018-01-25T07:58:41.411Z,82.10
2018-01-25T08:01:08.738Z,82.10
2018-01-25T08:03:35.649Z,82.10
2018-01-25T08:06:02.878Z,82.10
2018-01-25T08:08:29.154Z,82.10
2018-01-25T08:10:56.099Z,81.50
2018-01-25T08:13:31.380Z,82.20
2018-01-25T08:16:03.714Z,82.00
2018-01-25T08:18:29.956Z,82.10
2018-01-25T08:20:56.158Z,82.00
2018-01-25T08:23:22.348Z,82.00
2018-01-25T08:25:50.210Z,82.10
2018-01-25T08:28:17.920Z,81.60
2018-01-25T08:30:44.108Z,82.10
2018-01-25T08:33:11.240Z,81.90
2018-01-25T08:35:38.049Z,82.00
2018-01-25T08:38:04.216Z,82.60
2018-01-25T08:40:30.674Z,82.80
2018-01-25T08:42:57.909Z,83.60
2018-01-25T08:45:26.729Z,83.60
2018-01-25T08:47:52.963Z,84.30
2018-01-25T08:50:19.176Z,84.90
2018-01-25T08:52:46.990Z,85.60
2018-01-25T08:55:13.481Z,85.60
2018-01-25T08:57:40.641Z,86.80
2018-01-25T09:00:07.821Z,87.30
2018-01-25T09:12:26.538Z,88.90
2018-01-25T09:14:55.119Z,88.90
2018-01-25T09:17:21.342Z,89.50
2018-01-25T09:19:48.068Z,90.00
2018-01-25T09:22:15.002Z,90.10
2018-01-25T09:24:42.923Z,90.10
2018-01-25T09:36:55.129Z,91.30
2018-01-25T09:39:21.936Z,91.10
2018-01-25T09:41:49.050Z,91.00
2018-01-25T09:44:16.076Z,90.90
2018-01-25T09:46:42.297Z,91.50
2018-01-25T09:49:09.287Z,91.20
2018-01-25T10:01:20.505Z,91.30
2018-01-25T10:03:47.459Z,91.20
2018-01-25T10:06:15.121Z,91.20
2018-01-25T10:08:42.085Z,91.10
2018-01-25T10:11:08.369Z,91.10
2018-01-25T10:13:34.644Z,91.30
2018-01-25T10:16:02.775Z,91.50
2018-01-25T10:18:29.614Z,91.40
2018-01-25T10:20:56.692Z,91.40
2018-01-25T10:23:23.636Z,91.40
2018-01-25T10:25:51.529Z,91.40
2018-01-25T10:28:17.754Z,91.00
2018-01-25T10:30:45.743Z,91.30
2018-01-25T10:33:12.841Z,91.30
2018-01-25T10:35:39.060Z,91.40
2018-01-25T10:38:05.261Z,91.30
2018-01-25T10:40:32.241Z,91.40
2018-01-25T10:43:01.343Z,91.60
2018-01-25T10:45:28.314Z,91.90
2018-01-25T10:47:56.140Z,92.20
2018-01-25T10:50:23.334Z,92.40
2018-01-25T10:52:52.067Z,92.00
2018-01-25T10:55:18.603Z,91.80
2018-01-25T10:57:45.527Z,91.80
2018-01-25T11:00:12.636Z,91.90
2018-01-25T11:02:40.335Z,92.30
2018-01-25T11:05:07.008Z,91.90
2018-01-25T11:07:35.913Z,92.10
2018-01-25T11:10:02.209Z,92.10
2018-01-25T11:12:28.438Z,92.30
2018-01-25T11:14:55.450Z,92.50
2018-01-25T11:17:23.658Z,91.30
2018-01-25T11:19:52.009Z,91.00
2018-01-25T11:22:19.254Z,90.80
2018-01-25T11:24:46.274Z,90.80
2018-01-25T11:27:13.360Z,90.30
2018-01-25T11:29:39.573Z,90.60
2018-01-25T11:32:10.053Z,91.00
2018-01-25T11:34:36.923Z,90.90
2018-01-25T11:37:04.177Z,90.90
2018-01-25T11:39:32.315Z,91.00
2018-01-25T11:41:58.561Z,90.90
2018-01-25T11:44:25.647Z,91.10
2018-01-25T11:46:52.584Z,91.50
2018-01-25T11:49:18.747Z,91.30
2018-01-25T11:51:44.996Z,91.20
2018-01-25T11:54:12.062Z,91.00
2018-01-25T11:56:38.218Z,91.10
2018-01-25T11:59:05.821Z,91.60
2018-01-25T12:11:17.954Z,91.00
2018-01-25T12:13:44.876Z,91.20
2018-01-25T12:16:11.520Z,91.00
2018-01-25T12:18:37.718Z,91.00
2018-01-25T12:21:03.946Z,91.10
2018-01-25T12:23:31.289Z,91.40
2018-01-25T12:25:57.441Z,91.50
2018-01-25T12:28:24.141Z,91.60
2018-01-25T12:30:51.294Z,91.40
2018-01-25T12:33:17.494Z,91.60
2018-01-25T12:35:43.669Z,91.40
2018-01-25T12:38:10.696Z,90.80
2018-01-25T12:40:37.396Z,90.70
2018-01-25T12:43:03.978Z,90.60
2018-01-25T12:45:32.247Z,90.60
2018-01-25T12:47:58.398Z,90.80
2018-01-25T12:50:25.342Z,90.70
2018-01-25T12:52:53.246Z,90.90
2018-01-25T12:55:21.225Z,90.60
2018-01-25T12:57:47.398Z,90.80
2018-01-25T13:00:13.680Z,90.80
2018-01-25T13:02:40.263Z,90.90
2018-01-25T13:05:09.562Z,90.80
2018-01-25T13:07:36.664Z,91.00
2018-01-25T13:10:03.119Z,90.90
2018-01-25T13:12:32.549Z,90.60
2018-01-25T13:14:59.344Z,90.60
2018-01-25T13:17:25.564Z,90.30
2018-01-25T13:19:54.545Z,90.30
2018-01-25T13:22:20.720Z,90.40
2018-01-25T13:24:47.639Z,90.10
2018-01-25T13:27:13.793Z,90.00
2018-01-25T13:29:40.697Z,90.20
2018-01-25T13:32:06.959Z,89.90
2018-01-25T13:34:33.816Z,89.80
2018-01-25T13:37:01.686Z,90.20
2018-01-25T13:39:27.870Z,90.10
2018-01-25T13:41:55.493Z,90.40
2018-01-25T13:44:21.656Z,90.60
2018-01-25T13:46:47.916Z,90.70
2018-01-25T13:49:15.918Z,90.90
2018-01-25T13:51:42.101Z,90.90
2018-01-25T13:54:10.185Z,91.10
2018-01-25T13:56:36.748Z,91.40
2018-01-25T13:59:03.874Z,91.30
2018-01-25T14:01:31.430Z,90.90
2018-01-25T14:03:57.713Z,91.10
2018-01-25T14:16:14.749Z,91.00
2018-01-25T14:18:42.208Z,91.20
2018-01-25T14:21:08.452Z,91.10
2018-01-25T14:23:34.729Z,90.90
2018-01-25T14:26:00.931Z,90.80
2018-01-25T14:28:28.133Z,90.80
2018-01-25T14:40:44.432Z,90.90
2018-01-25T14:43:15.426Z,91.40
2018-01-25T14:45:41.722Z,91.40
2018-01-25T14:48:07.913Z,91.50
2018-01-25T14:50:36.546Z,91.40
2018-01-25T14:53:02.763Z,91.40
2018-01-25T14:55:28.934Z,91.30
2018-01-25T14:57:55.185Z,91.50
2018-01-25T15:00:22.539Z,91.40
2018-01-25T15:02:49.777Z,91.50
2018-01-25T15:05:18.075Z,91.30
2018-01-25T15:07:45.643Z,91.50
2018-01-25T15:10:13.566Z,91.10
2018-01-25T15:12:39.733Z,91.40
2018-01-25T15:15:06.633Z,91.70
2018-01-25T15:17:33.520Z,91.30
2018-01-25T15:20:00.466Z,91.70
2018-01-25T15:22:27.534Z,91.90
2018-01-25T15:25:00.810Z,91.70
2018-01-25T15:27:32.814Z,91.90
2018-01-25T15:29:59.040Z,91.60
2018-01-25T15:32:25.230Z,91.90
2018-01-25T15:34:52.160Z,91.90
2018-01-25T15:37:18.709Z,91.60
2018-01-25T15:39:45.662Z,91.90
2018-01-25T15:42:12.688Z,91.80
2018-01-25T15:47:37.959Z,91.90
2018-01-25T15:50:04.218Z,91.60
2018-01-25T15:52:31.409Z,91.70
2018-01-25T15:54:57.605Z,91.90
2018-01-25T15:57:23.826Z,92.10
2018-01-25T15:59:50.952Z,92.10
2018-01-25T16:02:17.545Z,92.10
2018-01-25T16:04:43.776Z,92.00
2018-01-25T16:07:10.532Z,91.80
2018-01-25T16:09:37.448Z,92.10
2018-01-25T16:12:04.555Z,92.00
2018-01-25T16:14:30.759Z,92.20
2018-01-25T16:16:57.629Z,92.10
2018-01-25T16:19:23.874Z,91.90
2018-01-25T16:21:51.445Z,91.90
2018-01-25T16:24:20.163Z,92.00
2018-01-25T16:26:46.429Z,92.10
2018-01-25T16:29:13.015Z,92.00
2018-01-25T16:31:39.263Z,92.00
2018-01-25T16:34:06.547Z,92.10
2018-01-25T16:36:33.773Z,91.90
2018-01-25T16:39:00.050Z,91.60
2018-01-25T16:41:27.270Z,91.80
2018-01-25T16:43:54.477Z,92.20
2018-01-25T16:46:21.543Z,91.90
2018-01-25T16:58:32.940Z,91.80
2018-01-25T17:00:59.259Z,92.10
2018-01-25T17:03:26.917Z,92.30
2018-01-25T17:05:53.269Z,92.20
2018-01-25T17:08:21.753Z,92.20
2018-01-25T17:10:48.867Z,92.40
2018-01-25T17:13:17.019Z,92.60
2018-01-25T17:15:43.248Z,92.50
2018-01-25T17:18:11.749Z,92.50
2018-01-25T17:20:37.969Z,92.70
2018-01-25T17:23:04.145Z,92.40
2018-01-25T17:25:30.411Z,92.60
2018-01-25T17:28:00.483Z,92.70
2018-01-25T17:30:26.663Z,92.80
2018-01-25T17:32:54.651Z,92.80
2018-01-25T17:35:20.833Z,92.80
2018-01-25T17:37:47.314Z,92.70
2018-01-25T17:40:15.020Z,92.90
2018-01-25T17:42:42.160Z,92.80
2018-01-25T17:45:08.967Z,92.80
2018-01-25T17:47:35.138Z,93.00
2018-01-25T17:50:02.386Z,92.90
2018-01-25T17:52:28.630Z,93.20
2018-01-25T17:54:55.149Z,92.90
2018-01-25T17:57:21.871Z,93.10
2018-01-25T17:59:51.172Z,93.40
2018-01-25T18:02:17.503Z,92.90
2018-01-25T18:04:44.448Z,93.30
2018-01-25T18:07:12.983Z,93.30
2018-01-25T18:09:40.139Z,93.30
2018-01-25T18:12:06.399Z,93.30
2018-01-25T18:14:33.747Z,93.40
2018-01-25T18:26:46.290Z,93.60
2018-01-25T18:29:13.435Z,93.30
2018-01-25T18:31:40.021Z,93.20
2018-01-25T18:34:07.105Z,93.50
2018-01-25T18:36:34.555Z,93.50
2018-01-25T18:39:00.757Z,93.20
2018-01-25T18:41:27.460Z,93.30
2018-01-25T18:43:53.678Z,93.50
2018-01-25T18:46:20.149Z,93.20
2018-01-25T18:58:33.182Z,92.60
2018-01-25T19:01:00.751Z,92.80
2018-01-25T19:03:30.412Z,92.50
2018-01-25T19:05:57.058Z,93.00
2018-01-25T19:08:23.501Z,93.10
2018-01-25T19:10:51.426Z,93.50
2018-01-25T19:13:20.129Z,93.00
2018-01-25T19:15:47.513Z,93.00
2018-01-25T19:18:16.121Z,93.00
2018-01-25T19:20:42.325Z,93.00
2018-01-25T19:23:11.865Z,93.00
2018-01-25T19:25:38.491Z,93.00
2018-01-25T19:28:05.629Z,93.10
2018-01-25T19:30:32.723Z,93.40
2018-01-25T19:32:59.359Z,93.50
2018-01-25T19:35:26.566Z,93.30
2018-01-25T19:37:55.204Z,93.50
2018-01-25T19:40:23.200Z,93.50
2018-01-25T19:42:49.528Z,93.50
2018-01-25T19:45:16.216Z,92.70
2018-01-25T19:57:27.599Z,90.40
2018-01-25T19:59:56.140Z,90.20
2018-01-25T20:02:25.019Z,89.90
2018-01-25T20:04:54.037Z,90.00
2018-01-25T20:07:21.071Z,90.50
2018-01-25T20:09:48.169Z,90.80
2018-01-25T20:12:14.378Z,90.50
2018-01-25T20:14:41.502Z,90.60
2018-01-25T20:17:07.831Z,90.60
2018-01-25T20:19:34.763Z,90.80
2018-01-25T20:22:03.261Z,90.70
2018-01-25T20:24:31.199Z,90.60
2018-01-25T20:26:57.444Z,90.60
2018-01-25T20:29:24.778Z,91.00
2018-01-25T20:31:51.267Z,90.70
2018-01-25T20:34:18.000Z,90.90
2018-01-25T20:36:44.857Z,90.90
2018-01-25T20:39:11.069Z,90.70
2018-01-25T20:41:37.868Z,91.00
2018-01-25T20:44:04.770Z,90.70
2018-01-25T20:46:30.994Z,90.80
2018-01-25T20:48:57.194Z,91.00
2018-01-25T20:51:24.586Z,91.30
2018-01-25T20:53:50.882Z,91.10
2018-01-25T20:56:20.113Z,91.30
2018-01-25T20:58:46.335Z,91.30
2018-01-25T21:01:12.557Z,91.30
2018-01-25T21:03:39.200Z,91.30
2018-01-25T21:06:07.183Z,91.40
2018-01-25T21:08:34.130Z,91.70
2018-01-25T21:24:01.449Z,91.70
2018-01-25T21:26:29.036Z,91.70
2018-01-25T21:28:56.132Z,91.60
2018-01-25T21:31:22.394Z,91.50
2018-01-25T21:33:48.657Z,91.70
2018-01-25T21:36:15.191Z,91.90
2018-01-25T21:38:44.328Z,91.80
2018-01-25T21:41:10.665Z,91.70
2018-01-25T21:43:38.540Z,91.90
2018-01-25T21:46:05.486Z,91.70
2018-01-25T21:48:33.084Z,91.70
2018-01-25T21:50:59.285Z,91.50
2018-01-25T21:53:27.221Z,91.90
2018-01-25T21:55:54.592Z,91.80
2018-01-25T21:58:22.290Z,91.70
2018-01-25T22:00:48.469Z,91.90
2018-01-25T22:03:14.651Z,92.00
2018-01-25T22:05:42.266Z,92.00
2018-01-25T22:08:09.083Z,92.00
2018-01-25T22:10:36.217Z,91.90
2018-01-25T22:13:05.730Z,92.10
2018-01-25T22:15:32.903Z,92.00
2018-01-25T22:17:59.110Z,91.90
2018-01-25T22:20:28.838Z,92.00
2018-01-25T22:22:57.180Z,91.90
2018-01-25T22:25:23.356Z,92.10
2018-01-25T22:27:49.666Z,92.20
2018-01-25T22:30:15.841Z,91.80
2018-01-25T22:32:43.814Z,91.70
2018-01-25T22:35:11.947Z,91.70
2018-01-25T22:37:40.160Z,92.10
2018-01-25T22:40:08.037Z,92.00
2018-01-25T22:42:37.705Z,91.90
2018-01-25T22:45:07.108Z,91.90
2018-01-25T23:00:41.748Z,91.40
2018-01-25T23:03:08.826Z,91.50
2018-01-25T23:05:35.914Z,91.50
2018-01-25T23:08:02.110Z,91.70
2018-01-25T23:10:29.596Z,91.80
2018-01-25T23:12:56.423Z,91.80
2018-01-25T23:15:22.640Z,92.00
2018-01-25T23:17:48.879Z,91.90
2018-01-25T23:20:15.322Z,92.10
2018-01-25T23:22:41.524Z,91.70
2018-01-25T23:25:07.804Z,92.00
2018-01-25T23:27:34.930Z,92.20
2018-01-25T23:30:01.404Z,91.90
2018-01-25T23:32:27.826Z,91.80
2018-01-25T23:34:53.972Z,91.80
2018-01-25T23:37:20.128Z,92.10
2018-01-25T23:39:46.259Z,92.20
2018-01-25T23:42:12.479Z,91.70
2018-01-25T23:44:38.660Z,91.90
2018-01-25T23:47:04.907Z,91.80
2018-01-25T23:49:31.860Z,91.80
2018-01-25T23:51:58.808Z,91.80
2018-01-25T23:54:27.714Z,91.50
2018-01-25T23:56:55.318Z,91.50
2018-01-25T23:59:22.148Z,91.50
